sensor_id;sensor_type;location;lat;lon;timestamp;P1;durP1;ratioP1;P2;durP2;ratioP2
7931;SDS011;4011;49.424;10.894;2023-05-10T00:00:46;4.00;;;3.40;;
7931;SDS011;4011;49.424;10.894;2023-05-10T00:06:08;4.35;;;3.90;;
7931;SDS011;4011;49.424;10.894;2023-05-10T00:11:29;4.00;;;3.60;;
7931;SDS011;4011;49.424;10.894;2023-05-10T00:16:52;3.60;;;3.00;;
7931;SDS011;4011;49.424;10.894;2023-05-10T00:22:14;4.00;;;2.97;;
7931;SDS011;4011;49.424;10.894;2023-05-10T00:27:36;4.35;;;3.95;;
7931;SDS011;4011;49.424;10.894;2023-05-10T00:33:00;3.65;;;3.15;;
7931;SDS011;4011;49.424;10.894;2023-05-10T00:38:21;4.28;;;3.25;;
7931;SDS011;4011;49.424;10.894;2023-05-10T00:43:46;4.78;;;3.03;;
7931;SDS011;4011;49.424;10.894;2023-05-10T00:49:10;4.32;;;3.92;;
7931;SDS011;4011;49.424;10.894;2023-05-10T00:54:32;3.60;;;3.10;;
7931;SDS011;4011;49.424;10.894;2023-05-10T00:59:53;3.92;;;3.10;;
7931;SDS011;4011;49.424;10.894;2023-05-10T01:05:29;3.50;;;2.88;;
7931;SDS011;4011;49.424;10.894;2023-05-10T01:10:52;3.85;;;3.20;;
7931;SDS011;4011;49.424;10.894;2023-05-10T01:16:14;3.67;;;2.90;;
7931;SDS011;4011;49.424;10.894;2023-05-10T01:21:42;4.22;;;3.20;;
7931;SDS011;4011;49.424;10.894;2023-05-10T01:32:50;3.60;;;2.80;;
7931;SDS011;4011;49.424;10.894;2023-05-10T01:38:15;4.63;;;3.10;;
7931;SDS011;4011;49.424;10.894;2023-05-10T01:49:01;3.88;;;3.08;;
7931;SDS011;4011;49.424;10.894;2023-05-10T01:54:24;3.95;;;3.13;;
7931;SDS011;4011;49.424;10.894;2023-05-10T01:59:45;3.45;;;2.83;;
7931;SDS011;4011;49.424;10.894;2023-05-10T02:05:13;4.10;;;3.70;;
7931;SDS011;4011;49.424;10.894;2023-05-10T02:10:36;3.83;;;2.78;;
7931;SDS011;4011;49.424;10.894;2023-05-10T02:15:59;4.40;;;2.72;;
7931;SDS011;4011;49.424;10.894;2023-05-10T02:21:27;3.42;;;2.72;;
7931;SDS011;4011;49.424;10.894;2023-05-10T02:26:51;3.40;;;2.95;;
7931;SDS011;4011;49.424;10.894;2023-05-10T02:32:14;4.55;;;2.80;;
7931;SDS011;4011;49.424;10.894;2023-05-10T02:37:39;3.72;;;2.63;;
7931;SDS011;4011;49.424;10.894;2023-05-10T02:43:01;3.53;;;2.53;;
7931;SDS011;4011;49.424;10.894;2023-05-10T02:48:23;3.53;;;3.05;;
7931;SDS011;4011;49.424;10.894;2023-05-10T02:53:49;3.63;;;2.50;;
7931;SDS011;4011;49.424;10.894;2023-05-10T02:59:12;3.67;;;2.72;;
7931;SDS011;4011;49.424;10.894;2023-05-10T03:04:42;3.10;;;2.67;;
7931;SDS011;4011;49.424;10.894;2023-05-10T03:10:14;2.90;;;2.30;;
7931;SDS011;4011;49.424;10.894;2023-05-10T03:15:37;3.33;;;2.28;;
7931;SDS011;4011;49.424;10.894;2023-05-10T03:21:01;3.00;;;2.33;;
7931;SDS011;4011;49.424;10.894;2023-05-10T03:26:27;3.75;;;2.78;;
7931;SDS011;4011;49.424;10.894;2023-05-10T03:31:49;2.90;;;2.10;;
7931;SDS011;4011;49.424;10.894;2023-05-10T03:37:14;2.63;;;2.05;;
7931;SDS011;4011;49.424;10.894;2023-05-10T03:42:39;3.15;;;2.38;;
7931;SDS011;4011;49.424;10.894;2023-05-10T03:48:04;3.03;;;2.25;;
7931;SDS011;4011;49.424;10.894;2023-05-10T03:53:29;3.05;;;2.00;;
7931;SDS011;4011;49.424;10.894;2023-05-10T03:58:53;2.75;;;1.92;;
7931;SDS011;4011;49.424;10.894;2023-05-10T04:04:15;2.78;;;2.42;;
7931;SDS011;4011;49.424;10.894;2023-05-10T04:09:39;3.15;;;1.92;;
7931;SDS011;4011;49.424;10.894;2023-05-10T04:15:03;2.30;;;1.60;;
7931;SDS011;4011;49.424;10.894;2023-05-10T04:20:24;2.85;;;1.70;;
7931;SDS011;4011;49.424;10.894;2023-05-10T04:25:48;2.58;;;2.13;;
7931;SDS011;4011;49.424;10.894;2023-05-10T04:31:25;3.65;;;1.88;;
7931;SDS011;4011;49.424;10.894;2023-05-10T04:36:48;5.25;;;2.00;;
7931;SDS011;4011;49.424;10.894;2023-05-10T04:42:12;3.78;;;2.25;;
7931;SDS011;4011;49.424;10.894;2023-05-10T04:47:37;3.88;;;2.30;;
7931;SDS011;4011;49.424;10.894;2023-05-10T04:53:02;3.60;;;1.88;;
7931;SDS011;4011;49.424;10.894;2023-05-10T04:58:24;5.15;;;1.95;;
7931;SDS011;4011;49.424;10.894;2023-05-10T05:03:48;3.00;;;2.40;;
7931;SDS011;4011;49.424;10.894;2023-05-10T05:09:10;2.88;;;1.80;;
7931;SDS011;4011;49.424;10.894;2023-05-10T05:14:32;1.98;;;1.40;;
7931;SDS011;4011;49.424;10.894;2023-05-10T05:19:55;1.58;;;1.30;;
7931;SDS011;4011;49.424;10.894;2023-05-10T05:25:19;2.60;;;1.80;;
7931;SDS011;4011;49.424;10.894;2023-05-10T05:30:41;2.20;;;1.73;;
7931;SDS011;4011;49.424;10.894;2023-05-10T05:36:07;1.30;;;1.20;;
7931;SDS011;4011;49.424;10.894;2023-05-10T05:41:32;1.30;;;1.20;;
7931;SDS011;4011;49.424;10.894;2023-05-10T05:46:56;2.47;;;1.90;;
7931;SDS011;4011;49.424;10.894;2023-05-10T05:52:21;1.38;;;1.23;;
7931;SDS011;4011;49.424;10.894;2023-05-10T05:57:43;1.40;;;1.20;;
7931;SDS011;4011;49.424;10.894;2023-05-10T06:03:23;1.75;;;1.63;;
7931;SDS011;4011;49.424;10.894;2023-05-10T06:14:12;1.40;;;1.30;;
7931;SDS011;4011;49.424;10.894;2023-05-10T06:19:40;1.90;;;1.70;;
7931;SDS011;4011;49.424;10.894;2023-05-10T06:25:03;3.05;;;1.90;;
7931;SDS011;4011;49.424;10.894;2023-05-10T06:30:38;1.30;;;1.20;;
7931;SDS011;4011;49.424;10.894;2023-05-10T06:35:59;2.30;;;1.75;;
7931;SDS011;4011;49.424;10.894;2023-05-10T06:41:22;2.70;;;2.10;;
7931;SDS011;4011;49.424;10.894;2023-05-10T06:46:46;2.08;;;1.20;;
7931;SDS011;4011;49.424;10.894;2023-05-10T06:52:19;1.70;;;1.48;;
7931;SDS011;4011;49.424;10.894;2023-05-10T06:57:44;1.83;;;1.65;;
7931;SDS011;4011;49.424;10.894;2023-05-10T07:03:13;2.20;;;1.40;;
7931;SDS011;4011;49.424;10.894;2023-05-10T07:08:34;2.00;;;1.35;;
7931;SDS011;4011;49.424;10.894;2023-05-10T07:13:56;1.50;;;1.40;;
7931;SDS011;4011;49.424;10.894;2023-05-10T07:19:21;2.60;;;1.90;;
7931;SDS011;4011;49.424;10.894;2023-05-10T07:24:42;1.92;;;1.40;;
7931;SDS011;4011;49.424;10.894;2023-05-10T07:30:04;1.98;;;1.38;;
7931;SDS011;4011;49.424;10.894;2023-05-10T07:35:27;1.67;;;1.30;;
7931;SDS011;4011;49.424;10.894;2023-05-10T07:40:49;2.72;;;2.13;;
7931;SDS011;4011;49.424;10.894;2023-05-10T07:46:10;2.55;;;1.88;;
7931;SDS011;4011;49.424;10.894;2023-05-10T07:51:33;2.95;;;1.45;;
7931;SDS011;4011;49.424;10.894;2023-05-10T07:56:55;2.22;;;1.50;;
7931;SDS011;4011;49.424;10.894;2023-05-10T08:02:17;2.25;;;1.67;;
7931;SDS011;4011;49.424;10.894;2023-05-10T08:07:43;2.75;;;1.95;;
7931;SDS011;4011;49.424;10.894;2023-05-10T08:13:07;3.42;;;1.60;;
7931;SDS011;4011;49.424;10.894;2023-05-10T08:18:29;1.63;;;1.30;;
7931;SDS011;4011;49.424;10.894;2023-05-10T08:23:53;1.60;;;1.35;;
7931;SDS011;4011;49.424;10.894;2023-05-10T08:29:15;3.50;;;1.90;;
7931;SDS011;4011;49.424;10.894;2023-05-10T08:34:37;1.83;;;1.40;;
7931;SDS011;4011;49.424;10.894;2023-05-10T08:40:00;2.45;;;1.40;;
7931;SDS011;4011;49.424;10.894;2023-05-10T08:45:21;2.15;;;1.38;;
7931;SDS011;4011;49.424;10.894;2023-05-10T08:50:44;2.15;;;1.70;;
7931;SDS011;4011;49.424;10.894;2023-05-10T08:56:08;2.17;;;1.40;;
7931;SDS011;4011;49.424;10.894;2023-05-10T09:01:30;2.17;;;1.50;;
7931;SDS011;4011;49.424;10.894;2023-05-10T09:06:53;2.65;;;1.52;;
7931;SDS011;4011;49.424;10.894;2023-05-10T09:12:16;2.33;;;2.10;;
7931;SDS011;4011;49.424;10.894;2023-05-10T09:17:38;1.80;;;1.50;;
7931;SDS011;4011;49.424;10.894;2023-05-10T09:23:01;2.42;;;1.33;;
7931;SDS011;4011;49.424;10.894;2023-05-10T09:28:24;2.28;;;1.58;;
7931;SDS011;4011;49.424;10.894;2023-05-10T09:33:46;2.25;;;2.05;;
7931;SDS011;4011;49.424;10.894;2023-05-10T09:39:08;2.35;;;1.73;;
7931;SDS011;4011;49.424;10.894;2023-05-10T09:44:31;2.05;;;1.50;;
7931;SDS011;4011;49.424;10.894;2023-05-10T09:49:52;2.35;;;1.60;;
7931;SDS011;4011;49.424;10.894;2023-05-10T09:55:16;3.67;;;2.05;;
7931;SDS011;4011;49.424;10.894;2023-05-10T10:00:40;2.47;;;1.83;;
7931;SDS011;4011;49.424;10.894;2023-05-10T10:06:03;3.05;;;1.50;;
7931;SDS011;4011;49.424;10.894;2023-05-10T10:11:29;2.38;;;1.70;;
7931;SDS011;4011;49.424;10.894;2023-05-10T10:16:52;2.58;;;2.38;;
7931;SDS011;4011;49.424;10.894;2023-05-10T10:22:14;3.83;;;2.05;;
7931;SDS011;4011;49.424;10.894;2023-05-10T10:27:38;2.63;;;1.65;;
7931;SDS011;4011;49.424;10.894;2023-05-10T10:33:10;3.45;;;1.70;;
7931;SDS011;4011;49.424;10.894;2023-05-10T10:50:05;3.22;;;1.90;;
7931;SDS011;4011;49.424;10.894;2023-05-10T10:55:31;2.72;;;1.70;;
7931;SDS011;4011;49.424;10.894;2023-05-10T11:00:52;2.58;;;1.60;;
7931;SDS011;4011;49.424;10.894;2023-05-10T11:06:32;3.10;;;1.70;;
7931;SDS011;4011;49.424;10.894;2023-05-10T11:11:54;2.40;;;1.75;;
7931;SDS011;4011;49.424;10.894;2023-05-10T11:17:22;2.75;;;1.75;;
7931;SDS011;4011;49.424;10.894;2023-05-10T11:22:52;2.65;;;2.20;;
7931;SDS011;4011;49.424;10.894;2023-05-10T11:28:14;2.55;;;1.50;;
7931;SDS011;4011;49.424;10.894;2023-05-10T11:33:42;2.92;;;1.70;;
7931;SDS011;4011;49.424;10.894;2023-05-10T11:39:05;3.20;;;2.20;;
7931;SDS011;4011;49.424;10.894;2023-05-10T11:44:28;3.17;;;1.95;;
7931;SDS011;4011;49.424;10.894;2023-05-10T11:49:50;2.38;;;1.85;;
7931;SDS011;4011;49.424;10.894;2023-05-10T11:55:14;2.38;;;1.58;;
7931;SDS011;4011;49.424;10.894;2023-05-10T12:00:37;3.10;;;2.15;;
7931;SDS011;4011;49.424;10.894;2023-05-10T12:05:59;2.22;;;1.77;;
7931;SDS011;4011;49.424;10.894;2023-05-10T12:11:25;1.83;;;1.42;;
7931;SDS011;4011;49.424;10.894;2023-05-10T12:16:47;2.00;;;1.80;;
7931;SDS011;4011;49.424;10.894;2023-05-10T12:22:08;2.33;;;2.00;;
7931;SDS011;4011;49.424;10.894;2023-05-10T12:27:33;2.65;;;2.15;;
7931;SDS011;4011;49.424;10.894;2023-05-10T12:32:59;2.25;;;1.65;;
7931;SDS011;4011;49.424;10.894;2023-05-10T12:38:28;1.88;;;1.50;;
7931;SDS011;4011;49.424;10.894;2023-05-10T12:43:54;2.97;;;2.05;;
7931;SDS011;4011;49.424;10.894;2023-05-10T12:49:16;2.63;;;1.70;;
7931;SDS011;4011;49.424;10.894;2023-05-10T12:54:38;2.50;;;1.70;;
7931;SDS011;4011;49.424;10.894;2023-05-10T13:00:01;2.70;;;1.65;;
7931;SDS011;4011;49.424;10.894;2023-05-10T13:05:24;2.90;;;2.22;;
7931;SDS011;4011;49.424;10.894;2023-05-10T13:10:46;2.58;;;1.70;;
7931;SDS011;4011;49.424;10.894;2023-05-10T13:16:08;2.28;;;1.60;;
7931;SDS011;4011;49.424;10.894;2023-05-10T13:21:30;1.92;;;1.60;;
7931;SDS011;4011;49.424;10.894;2023-05-10T13:26:51;2.83;;;2.25;;
7931;SDS011;4011;49.424;10.894;2023-05-10T13:32:14;2.10;;;1.80;;
7931;SDS011;4011;49.424;10.894;2023-05-10T13:37:36;1.95;;;1.55;;
7931;SDS011;4011;49.424;10.894;2023-05-10T13:42:57;2.13;;;1.60;;
7931;SDS011;4011;49.424;10.894;2023-05-10T13:48:20;2.03;;;1.77;;
7931;SDS011;4011;49.424;10.894;2023-05-10T13:53:41;2.50;;;2.05;;
7931;SDS011;4011;49.424;10.894;2023-05-10T13:59:03;2.95;;;1.60;;
7931;SDS011;4011;49.424;10.894;2023-05-10T14:04:25;2.67;;;1.50;;
7931;SDS011;4011;49.424;10.894;2023-05-10T14:09:47;3.00;;;1.88;;
7931;SDS011;4011;49.424;10.894;2023-05-10T14:15:08;3.70;;;2.13;;
7931;SDS011;4011;49.424;10.894;2023-05-10T14:20:33;2.17;;;1.60;;
7931;SDS011;4011;49.424;10.894;2023-05-10T14:25:54;1.90;;;1.45;;
7931;SDS011;4011;49.424;10.894;2023-05-10T14:31:15;2.47;;;1.88;;
7931;SDS011;4011;49.424;10.894;2023-05-10T14:36:41;2.30;;;2.10;;
7931;SDS011;4011;49.424;10.894;2023-05-10T14:42:02;2.28;;;1.85;;
7931;SDS011;4011;49.424;10.894;2023-05-10T14:47:23;1.98;;;1.50;;
7931;SDS011;4011;49.424;10.894;2023-05-10T14:52:46;3.35;;;1.75;;
7931;SDS011;4011;49.424;10.894;2023-05-10T14:58:08;2.92;;;1.88;;
7931;SDS011;4011;49.424;10.894;2023-05-10T15:03:29;3.13;;;2.40;;
7931;SDS011;4011;49.424;10.894;2023-05-10T15:08:52;2.58;;;1.70;;
7931;SDS011;4011;49.424;10.894;2023-05-10T15:14:13;2.50;;;1.55;;
7931;SDS011;4011;49.424;10.894;2023-05-10T15:19:35;2.88;;;1.50;;
7931;SDS011;4011;49.424;10.894;2023-05-10T15:24:58;2.97;;;2.20;;
7931;SDS011;4011;49.424;10.894;2023-05-10T15:36:07;2.55;;;1.83;;
7931;SDS011;4011;49.424;10.894;2023-05-10T15:41:29;2.63;;;2.22;;
7931;SDS011;4011;49.424;10.894;2023-05-10T15:46:51;2.25;;;1.60;;
7931;SDS011;4011;49.424;10.894;2023-05-10T15:52:12;2.13;;;1.73;;
7931;SDS011;4011;49.424;10.894;2023-05-10T15:57:35;2.75;;;1.70;;
7931;SDS011;4011;49.424;10.894;2023-05-10T16:02:57;3.67;;;2.20;;
7931;SDS011;4011;49.424;10.894;2023-05-10T16:08:18;2.30;;;1.73;;
7931;SDS011;4011;49.424;10.894;2023-05-10T16:13:41;1.98;;;1.50;;
7931;SDS011;4011;49.424;10.894;2023-05-10T16:19:02;2.30;;;1.70;;
7931;SDS011;4011;49.424;10.894;2023-05-10T16:24:24;2.90;;;1.85;;
7931;SDS011;4011;49.424;10.894;2023-05-10T16:29:46;3.67;;;1.98;;
7931;SDS011;4011;49.424;10.894;2023-05-10T16:35:08;3.17;;;1.50;;
7931;SDS011;4011;49.424;10.894;2023-05-10T16:40:31;2.15;;;1.60;;
7931;SDS011;4011;49.424;10.894;2023-05-10T16:45:54;2.88;;;1.63;;
7931;SDS011;4011;49.424;10.894;2023-05-10T16:51:15;2.42;;;2.13;;
7931;SDS011;4011;49.424;10.894;2023-05-10T16:56:37;2.95;;;1.83;;
7931;SDS011;4011;49.424;10.894;2023-05-10T17:01:59;2.08;;;1.48;;
7931;SDS011;4011;49.424;10.894;2023-05-10T17:07:21;2.72;;;1.40;;
7931;SDS011;4011;49.424;10.894;2023-05-10T17:12:42;3.17;;;1.88;;
7931;SDS011;4011;49.424;10.894;2023-05-10T17:18:05;2.28;;;2.08;;
7931;SDS011;4011;49.424;10.894;2023-05-10T17:23:27;2.05;;;1.60;;
7931;SDS011;4011;49.424;10.894;2023-05-10T17:28:49;2.40;;;1.50;;
7931;SDS011;4011;49.424;10.894;2023-05-10T17:34:11;3.20;;;1.75;;
7931;SDS011;4011;49.424;10.894;2023-05-10T17:39:33;2.58;;;2.22;;
7931;SDS011;4011;49.424;10.894;2023-05-10T17:44:54;2.33;;;1.60;;
7931;SDS011;4011;49.424;10.894;2023-05-10T17:50:17;2.25;;;1.65;;
7931;SDS011;4011;49.424;10.894;2023-05-10T17:55:39;2.80;;;1.60;;
7931;SDS011;4011;49.424;10.894;2023-05-10T18:01:01;2.72;;;2.13;;
7931;SDS011;4011;49.424;10.894;2023-05-10T18:06:23;1.95;;;1.70;;
7931;SDS011;4011;49.424;10.894;2023-05-10T18:11:45;2.38;;;1.70;;
7931;SDS011;4011;49.424;10.894;2023-05-10T18:17:06;2.13;;;1.60;;
7931;SDS011;4011;49.424;10.894;2023-05-10T18:22:29;2.90;;;1.80;;
7931;SDS011;4011;49.424;10.894;2023-05-10T18:27:50;2.90;;;2.33;;
7931;SDS011;4011;49.424;10.894;2023-05-10T18:33:12;2.47;;;1.75;;
7931;SDS011;4011;49.424;10.894;2023-05-10T18:38:34;2.60;;;1.50;;
7931;SDS011;4011;49.424;10.894;2023-05-10T18:43:56;2.70;;;1.90;;
7931;SDS011;4011;49.424;10.894;2023-05-10T18:49:17;3.22;;;2.22;;
7931;SDS011;4011;49.424;10.894;2023-05-10T18:54:40;3.10;;;1.83;;
7931;SDS011;4011;49.424;10.894;2023-05-10T19:00:01;2.63;;;1.77;;
7931;SDS011;4011;49.424;10.894;2023-05-10T19:05:23;2.13;;;1.60;;
7931;SDS011;4011;49.424;10.894;2023-05-10T19:10:50;2.90;;;2.22;;
7931;SDS011;4011;49.424;10.894;2023-05-10T19:16:12;2.30;;;1.75;;
7931;SDS011;4011;49.424;10.894;2023-05-10T19:21:34;2.88;;;1.50;;
7931;SDS011;4011;49.424;10.894;2023-05-10T19:26:57;2.90;;;1.90;;
7931;SDS011;4011;49.424;10.894;2023-05-10T19:32:18;2.30;;;1.88;;
7931;SDS011;4011;49.424;10.894;2023-05-10T19:37:40;3.30;;;2.35;;
7931;SDS011;4011;49.424;10.894;2023-05-10T19:43:06;3.50;;;1.80;;
7931;SDS011;4011;49.424;10.894;2023-05-10T19:48:27;2.40;;;1.73;;
7931;SDS011;4011;49.424;10.894;2023-05-10T19:53:49;2.50;;;1.92;;
7931;SDS011;4011;49.424;10.894;2023-05-10T19:59:11;2.88;;;2.50;;
7931;SDS011;4011;49.424;10.894;2023-05-10T20:04:33;3.78;;;1.85;;
7931;SDS011;4011;49.424;10.894;2023-05-10T20:09:54;2.75;;;1.80;;
7931;SDS011;4011;49.424;10.894;2023-05-10T20:15:17;3.20;;;1.70;;
7931;SDS011;4011;49.424;10.894;2023-05-10T20:20:39;2.85;;;2.55;;
7931;SDS011;4011;49.424;10.894;2023-05-10T20:26:01;2.63;;;1.88;;
7931;SDS011;4011;49.424;10.894;2023-05-10T20:31:24;2.28;;;1.70;;
7931;SDS011;4011;49.424;10.894;2023-05-10T20:36:45;2.92;;;1.70;;
7931;SDS011;4011;49.424;10.894;2023-05-10T20:42:06;2.67;;;2.00;;
7931;SDS011;4011;49.424;10.894;2023-05-10T20:47:29;3.03;;;2.38;;
7931;SDS011;4011;49.424;10.894;2023-05-10T20:52:51;3.15;;;1.83;;
7931;SDS011;4011;49.424;10.894;2023-05-10T20:58:12;2.88;;;1.80;;
7931;SDS011;4011;49.424;10.894;2023-05-10T21:03:36;4.05;;;1.98;;
7931;SDS011;4011;49.424;10.894;2023-05-10T21:08:57;3.42;;;2.40;;
7931;SDS011;4011;49.424;10.894;2023-05-10T21:14:19;3.00;;;2.05;;
7931;SDS011;4011;49.424;10.894;2023-05-10T21:19:41;2.83;;;1.83;;
7931;SDS011;4011;49.424;10.894;2023-05-10T21:25:03;2.70;;;1.80;;
7931;SDS011;4011;49.424;10.894;2023-05-10T21:30:24;3.78;;;2.33;;
7931;SDS011;4011;49.424;10.894;2023-05-10T21:35:47;3.55;;;2.45;;
7931;SDS011;4011;49.424;10.894;2023-05-10T21:41:09;3.83;;;1.90;;
7931;SDS011;4011;49.424;10.894;2023-05-10T21:46:31;3.10;;;1.90;;
7931;SDS011;4011;49.424;10.894;2023-05-10T21:51:55;3.97;;;1.90;;
7931;SDS011;4011;49.424;10.894;2023-05-10T21:57:17;3.97;;;2.58;;
7931;SDS011;4011;49.424;10.894;2023-05-10T22:02:38;4.60;;;2.00;;
7931;SDS011;4011;49.424;10.894;2023-05-10T22:08:01;3.63;;;2.00;;
7931;SDS011;4011;49.424;10.894;2023-05-10T22:13:22;4.30;;;1.90;;
7931;SDS011;4011;49.424;10.894;2023-05-10T22:18:44;5.82;;;2.75;;
7931;SDS011;4011;49.424;10.894;2023-05-10T22:24:07;4.07;;;2.85;;
7931;SDS011;4011;49.424;10.894;2023-05-10T22:29:28;4.95;;;2.30;;
7931;SDS011;4011;49.424;10.894;2023-05-10T22:34:50;4.00;;;2.15;;
7931;SDS011;4011;49.424;10.894;2023-05-10T22:40:13;4.18;;;2.20;;
7931;SDS011;4011;49.424;10.894;2023-05-10T22:45:34;4.75;;;3.15;;
7931;SDS011;4011;49.424;10.894;2023-05-10T22:50:56;4.13;;;2.40;;
7931;SDS011;4011;49.424;10.894;2023-05-10T22:56:18;3.22;;;2.00;;
7931;SDS011;4011;49.424;10.894;2023-05-10T23:01:40;3.55;;;2.22;;
7931;SDS011;4011;49.424;10.894;2023-05-10T23:07:03;4.65;;;2.70;;
7931;SDS011;4011;49.424;10.894;2023-05-10T23:12:26;4.70;;;2.30;;
7931;SDS011;4011;49.424;10.894;2023-05-10T23:17:50;3.50;;;1.90;;
7931;SDS011;4011;49.424;10.894;2023-05-10T23:23:11;3.78;;;2.00;;
7931;SDS011;4011;49.424;10.894;2023-05-10T23:28:34;4.13;;;2.53;;
7931;SDS011;4011;49.424;10.894;2023-05-10T23:33:56;3.30;;;2.25;;
7931;SDS011;4011;49.424;10.894;2023-05-10T23:39:17;3.83;;;2.08;;
7931;SDS011;4011;49.424;10.894;2023-05-10T23:44:41;4.07;;;2.58;;
7931;SDS011;4011;49.424;10.894;2023-05-10T23:50:03;2.92;;;2.15;;
7931;SDS011;4011;49.424;10.894;2023-05-10T23:55:25;4.00;;;2.45;;
